sensor_id;sensor_type;location;lat;lon;timestamp;temperature;humidity
40257;DHT22;25977;45.462;9.210;2022-08-01T00:01:22;29.90;48.70
40257;DHT22;25977;45.462;9.210;2022-08-01T00:03:48;29.90;48.70
40257;DHT22;25977;45.462;9.210;2022-08-01T00:06:14;29.90;48.80
40257;DHT22;25977;45.462;9.210;2022-08-01T00:08:39;29.90;48.70
40257;DHT22;25977;45.462;9.210;2022-08-01T00:11:05;29.90;48.70
40257;DHT22;25977;45.462;9.210;2022-08-01T00:13:31;29.80;48.80
40257;DHT22;25977;45.462;9.210;2022-08-01T00:15:56;29.80;48.90
40257;DHT22;25977;45.462;9.210;2022-08-01T00:18:22;29.70;49.10
40257;DHT22;25977;45.462;9.210;2022-08-01T00:20:49;29.70;49.20
40257;DHT22;25977;45.462;9.210;2022-08-01T00:23:15;29.70;49.30
40257;DHT22;25977;45.462;9.210;2022-08-01T00:25:40;29.70;49.30
40257;DHT22;25977;45.462;9.210;2022-08-01T00:28:06;29.70;49.40
40257;DHT22;25977;45.462;9.210;2022-08-01T00:30:34;29.60;49.30
40257;DHT22;25977;45.462;9.210;2022-08-01T00:33:01;29.60;49.40
40257;DHT22;25977;45.462;9.210;2022-08-01T00:35:26;29.60;49.40
40257;DHT22;25977;45.462;9.210;2022-08-01T00:37:52;29.50;49.60
40257;DHT22;25977;45.462;9.210;2022-08-01T00:40:18;29.50;49.80
40257;DHT22;25977;45.462;9.210;2022-08-01T00:42:43;29.50;50.00
40257;DHT22;25977;45.462;9.210;2022-08-01T00:45:10;29.50;50.10
40257;DHT22;25977;45.462;9.210;2022-08-01T00:47:37;29.50;50.10
40257;DHT22;25977;45.462;9.210;2022-08-01T00:50:07;29.50;50.10
40257;DHT22;25977;45.462;9.210;2022-08-01T00:52:33;29.50;50.20
40257;DHT22;25977;45.462;9.210;2022-08-01T00:54:59;29.40;50.10
40257;DHT22;25977;45.462;9.210;2022-08-01T00:57:25;29.40;50.30
40257;DHT22;25977;45.462;9.210;2022-08-01T00:59:52;29.40;50.10
40257;DHT22;25977;45.462;9.210;2022-08-01T01:02:18;29.40;50.50
40257;DHT22;25977;45.462;9.210;2022-08-01T01:04:43;29.40;50.60
40257;DHT22;25977;45.462;9.210;2022-08-01T01:07:21;29.30;50.80
40257;DHT22;25977;45.462;9.210;2022-08-01T01:10:02;29.30;50.70
40257;DHT22;25977;45.462;9.210;2022-08-01T01:17:56;29.20;50.30
40257;DHT22;25977;45.462;9.210;2022-08-01T01:20:30;29.20;50.50
40257;DHT22;25977;45.462;9.210;2022-08-01T01:26:25;29.20;51.00
40257;DHT22;25977;45.462;9.210;2022-08-01T01:31:44;29.00;51.20
40257;DHT22;25977;45.462;9.210;2022-08-01T01:34:13;29.00;51.20
40257;DHT22;25977;45.462;9.210;2022-08-01T01:36:41;29.00;51.50
40257;DHT22;25977;45.462;9.210;2022-08-01T01:39:09;29.00;51.40
40257;DHT22;25977;45.462;9.210;2022-08-01T01:41:36;28.90;51.50
40257;DHT22;25977;45.462;9.210;2022-08-01T01:44:04;28.80;51.40
40257;DHT22;25977;45.462;9.210;2022-08-01T01:46:31;28.80;51.50
40257;DHT22;25977;45.462;9.210;2022-08-01T01:48:58;28.90;51.50
40257;DHT22;25977;45.462;9.210;2022-08-01T01:51:25;28.90;51.50
40257;DHT22;25977;45.462;9.210;2022-08-01T01:53:53;28.90;51.60
40257;DHT22;25977;45.462;9.210;2022-08-01T01:56:20;28.90;51.90
40257;DHT22;25977;45.462;9.210;2022-08-01T01:58:51;28.90;51.70
40257;DHT22;25977;45.462;9.210;2022-08-01T02:01:19;28.90;51.80
40257;DHT22;25977;45.462;9.210;2022-08-01T02:03:46;28.80;51.80
40257;DHT22;25977;45.462;9.210;2022-08-01T02:06:13;28.80;51.80
40257;DHT22;25977;45.462;9.210;2022-08-01T02:08:41;28.80;51.80
40257;DHT22;25977;45.462;9.210;2022-08-01T02:11:07;28.80;52.30
40257;DHT22;25977;45.462;9.210;2022-08-01T02:14:01;28.80;51.90
40257;DHT22;25977;45.462;9.210;2022-08-01T02:16:31;28.80;51.80
40257;DHT22;25977;45.462;9.210;2022-08-01T02:18:59;28.80;51.80
40257;DHT22;25977;45.462;9.210;2022-08-01T02:21:39;28.80;52.10
40257;DHT22;25977;45.462;9.210;2022-08-01T02:27:14;28.70;52.10
40257;DHT22;25977;45.462;9.210;2022-08-01T02:29:47;28.50;52.10
40257;DHT22;25977;45.462;9.210;2022-08-01T02:32:23;28.40;52.20
40257;DHT22;25977;45.462;9.210;2022-08-01T02:34:51;28.00;52.60
40257;DHT22;25977;45.462;9.210;2022-08-01T02:37:19;28.10;52.90
40257;DHT22;25977;45.462;9.210;2022-08-01T02:39:48;28.30;52.80
40257;DHT22;25977;45.462;9.210;2022-08-01T02:42:18;28.40;52.80
40257;DHT22;25977;45.462;9.210;2022-08-01T02:44:46;28.40;52.60
40257;DHT22;25977;45.462;9.210;2022-08-01T02:47:12;28.40;52.60
40257;DHT22;25977;45.462;9.210;2022-08-01T02:49:46;28.40;52.40
40257;DHT22;25977;45.462;9.210;2022-08-01T02:52:16;28.30;51.90
40257;DHT22;25977;45.462;9.210;2022-08-01T02:54:45;28.30;51.90
40257;DHT22;25977;45.462;9.210;2022-08-01T02:57:13;28.30;51.90
40257;DHT22;25977;45.462;9.210;2022-08-01T02:59:39;28.20;51.80
40257;DHT22;25977;45.462;9.210;2022-08-01T03:02:07;28.20;51.90
40257;DHT22;25977;45.462;9.210;2022-08-01T03:04:35;28.20;52.00
40257;DHT22;25977;45.462;9.210;2022-08-01T03:07:04;28.20;52.00
40257;DHT22;25977;45.462;9.210;2022-08-01T03:09:34;28.20;51.90
40257;DHT22;25977;45.462;9.210;2022-08-01T03:12:02;28.20;52.00
40257;DHT22;25977;45.462;9.210;2022-08-01T03:14:30;28.20;52.00
40257;DHT22;25977;45.462;9.210;2022-08-01T03:16:59;28.10;51.90
40257;DHT22;25977;45.462;9.210;2022-08-01T03:19:27;28.10;51.80
40257;DHT22;25977;45.462;9.210;2022-08-01T03:21:55;28.10;51.70
40257;DHT22;25977;45.462;9.210;2022-08-01T03:24:24;28.20;51.80
40257;DHT22;25977;45.462;9.210;2022-08-01T03:26:51;28.10;51.60
40257;DHT22;25977;45.462;9.210;2022-08-01T03:29:21;28.10;51.80
40257;DHT22;25977;45.462;9.210;2022-08-01T03:31:48;28.10;51.70
40257;DHT22;25977;45.462;9.210;2022-08-01T03:34:15;28.00;51.50
40257;DHT22;25977;45.462;9.210;2022-08-01T03:36:53;28.00;51.60
40257;DHT22;25977;45.462;9.210;2022-08-01T03:39:25;27.90;51.70
40257;DHT22;25977;45.462;9.210;2022-08-01T03:41:58;27.90;51.80
40257;DHT22;25977;45.462;9.210;2022-08-01T03:44:26;27.90;51.60
40257;DHT22;25977;45.462;9.210;2022-08-01T03:46:58;27.80;51.70
40257;DHT22;25977;45.462;9.210;2022-08-01T03:49:28;27.80;51.90
40257;DHT22;25977;45.462;9.210;2022-08-01T03:51:57;27.80;51.90
40257;DHT22;25977;45.462;9.210;2022-08-01T03:54:25;27.80;52.10
40257;DHT22;25977;45.462;9.210;2022-08-01T03:56:53;27.80;52.10
40257;DHT22;25977;45.462;9.210;2022-08-01T03:59:20;27.80;52.10
40257;DHT22;25977;45.462;9.210;2022-08-01T04:01:47;27.80;52.10
40257;DHT22;25977;45.462;9.210;2022-08-01T04:04:14;27.80;52.00
40257;DHT22;25977;45.462;9.210;2022-08-01T04:06:41;27.80;52.00
40257;DHT22;25977;45.462;9.210;2022-08-01T04:09:07;27.80;52.50
40257;DHT22;25977;45.462;9.210;2022-08-01T04:11:33;27.80;52.00
40257;DHT22;25977;45.462;9.210;2022-08-01T04:13:59;27.80;52.00
40257;DHT22;25977;45.462;9.210;2022-08-01T04:16:25;27.90;51.90
40257;DHT22;25977;45.462;9.210;2022-08-01T04:18:51;27.80;51.70
40257;DHT22;25977;45.462;9.210;2022-08-01T04:21:23;27.80;51.70
40257;DHT22;25977;45.462;9.210;2022-08-01T04:23:50;27.90;51.90
40257;DHT22;25977;45.462;9.210;2022-08-01T04:26:20;27.80;51.80
40257;DHT22;25977;45.462;9.210;2022-08-01T04:28:48;27.80;52.30
40257;DHT22;25977;45.462;9.210;2022-08-01T04:31:17;27.80;51.70
40257;DHT22;25977;45.462;9.210;2022-08-01T04:33:48;27.80;51.80
40257;DHT22;25977;45.462;9.210;2022-08-01T04:36:16;27.80;51.80
40257;DHT22;25977;45.462;9.210;2022-08-01T04:38:45;27.70;51.90
40257;DHT22;25977;45.462;9.210;2022-08-01T04:41:13;27.60;52.10
40257;DHT22;25977;45.462;9.210;2022-08-01T04:43:39;27.60;52.20
40257;DHT22;25977;45.462;9.210;2022-08-01T04:46:07;27.60;52.40
40257;DHT22;25977;45.462;9.210;2022-08-01T04:48:36;27.60;52.50
40257;DHT22;25977;45.462;9.210;2022-08-01T04:51:03;27.50;52.50
40257;DHT22;25977;45.462;9.210;2022-08-01T04:53:29;27.50;52.60
40257;DHT22;25977;45.462;9.210;2022-08-01T04:55:58;27.50;52.60
40257;DHT22;25977;45.462;9.210;2022-08-01T04:58:23;27.50;52.50
40257;DHT22;25977;45.462;9.210;2022-08-01T05:00:49;27.60;52.50
40257;DHT22;25977;45.462;9.210;2022-08-01T05:03:15;27.70;52.20
40257;DHT22;25977;45.462;9.210;2022-08-01T05:05:41;27.80;52.00
40257;DHT22;25977;45.462;9.210;2022-08-01T05:08:07;27.80;51.90
40257;DHT22;25977;45.462;9.210;2022-08-01T05:10:33;27.80;51.80
40257;DHT22;25977;45.462;9.210;2022-08-01T05:12:58;27.80;51.70
40257;DHT22;25977;45.462;9.210;2022-08-01T05:15:24;27.80;51.60
40257;DHT22;25977;45.462;9.210;2022-08-01T05:17:50;27.90;51.70
40257;DHT22;25977;45.462;9.210;2022-08-01T05:20:16;27.90;51.50
40257;DHT22;25977;45.462;9.210;2022-08-01T05:22:42;27.80;51.60
40257;DHT22;25977;45.462;9.210;2022-08-01T05:25:08;27.90;51.70
40257;DHT22;25977;45.462;9.210;2022-08-01T05:27:34;28.00;51.60
40257;DHT22;25977;45.462;9.210;2022-08-01T05:30:09;28.10;51.30
40257;DHT22;25977;45.462;9.210;2022-08-01T05:32:35;28.40;51.10
40257;DHT22;25977;45.462;9.210;2022-08-01T05:35:01;29.10;50.50
40257;DHT22;25977;45.462;9.210;2022-08-01T05:37:27;30.40;49.00
40257;DHT22;25977;45.462;9.210;2022-08-01T05:39:53;31.90;46.90
40257;DHT22;25977;45.462;9.210;2022-08-01T05:42:19;33.30;45.50
40257;DHT22;25977;45.462;9.210;2022-08-01T05:44:44;34.70;44.20
40257;DHT22;25977;45.462;9.210;2022-08-01T05:47:10;35.70;43.30
40257;DHT22;25977;45.462;9.210;2022-08-01T05:49:36;36.80;42.10
40257;DHT22;25977;45.462;9.210;2022-08-01T05:52:02;37.40;41.20
40257;DHT22;25977;45.462;9.210;2022-08-01T05:54:28;38.10;40.70
40257;DHT22;25977;45.462;9.210;2022-08-01T05:56:53;38.70;40.20
40257;DHT22;25977;45.462;9.210;2022-08-01T05:59:20;39.10;39.60
40257;DHT22;25977;45.462;9.210;2022-08-01T06:01:46;39.50;39.50
40257;DHT22;25977;45.462;9.210;2022-08-01T06:04:11;39.90;39.30
40257;DHT22;25977;45.462;9.210;2022-08-01T06:06:37;40.20;39.00
40257;DHT22;25977;45.462;9.210;2022-08-01T06:09:03;40.50;38.70
40257;DHT22;25977;45.462;9.210;2022-08-01T06:11:29;40.80;38.20
40257;DHT22;25977;45.462;9.210;2022-08-01T06:13:54;40.90;38.20
40257;DHT22;25977;45.462;9.210;2022-08-01T06:16:20;41.00;38.00
40257;DHT22;25977;45.462;9.210;2022-08-01T06:18:46;41.20;38.00
40257;DHT22;25977;45.462;9.210;2022-08-01T06:21:11;41.30;38.00
40257;DHT22;25977;45.462;9.210;2022-08-01T06:23:37;41.70;38.00
40257;DHT22;25977;45.462;9.210;2022-08-01T06:26:03;42.30;37.50
40257;DHT22;25977;45.462;9.210;2022-08-01T06:28:29;42.40;37.60
40257;DHT22;25977;45.462;9.210;2022-08-01T06:30:55;42.60;37.30
40257;DHT22;25977;45.462;9.210;2022-08-01T06:33:20;42.70;37.30
40257;DHT22;25977;45.462;9.210;2022-08-01T06:35:46;42.90;37.40
40257;DHT22;25977;45.462;9.210;2022-08-01T06:38:12;43.00;37.00
40257;DHT22;25977;45.462;9.210;2022-08-01T06:40:38;43.20;37.00
40257;DHT22;25977;45.462;9.210;2022-08-01T06:43:04;43.40;37.00
40257;DHT22;25977;45.462;9.210;2022-08-01T06:45:29;43.50;37.00
40257;DHT22;25977;45.462;9.210;2022-08-01T06:47:55;43.50;36.50
40257;DHT22;25977;45.462;9.210;2022-08-01T06:50:21;43.30;36.40
40257;DHT22;25977;45.462;9.210;2022-08-01T06:52:46;42.90;36.50
40257;DHT22;25977;45.462;9.210;2022-08-01T06:55:12;42.50;36.60
40257;DHT22;25977;45.462;9.210;2022-08-01T06:57:49;42.10;36.60
40257;DHT22;25977;45.462;9.210;2022-08-01T07:00:16;41.20;36.50
40257;DHT22;25977;45.462;9.210;2022-08-01T07:02:44;40.20;37.40
40257;DHT22;25977;45.462;9.210;2022-08-01T07:05:10;39.50;38.00
40257;DHT22;25977;45.462;9.210;2022-08-01T07:07:36;38.80;38.40
40257;DHT22;25977;45.462;9.210;2022-08-01T07:10:03;38.30;38.70
40257;DHT22;25977;45.462;9.210;2022-08-01T07:12:29;37.70;38.90
40257;DHT22;25977;45.462;9.210;2022-08-01T07:14:55;37.10;39.40
40257;DHT22;25977;45.462;9.210;2022-08-01T07:17:20;36.10;39.70
40257;DHT22;25977;45.462;9.210;2022-08-01T07:19:47;35.50;40.30
40257;DHT22;25977;45.462;9.210;2022-08-01T07:22:13;35.60;40.60
40257;DHT22;25977;45.462;9.210;2022-08-01T07:24:40;35.50;40.80
40257;DHT22;25977;45.462;9.210;2022-08-01T07:27:07;35.40;41.00
40257;DHT22;25977;45.462;9.210;2022-08-01T07:29:33;35.40;41.20
40257;DHT22;25977;45.462;9.210;2022-08-01T07:31:58;35.20;41.20
40257;DHT22;25977;45.462;9.210;2022-08-01T07:34:25;35.20;41.50
40257;DHT22;25977;45.462;9.210;2022-08-01T07:36:51;35.00;41.80
40257;DHT22;25977;45.462;9.210;2022-08-01T07:39:18;34.90;42.20
40257;DHT22;25977;45.462;9.210;2022-08-01T07:41:43;35.10;42.00
40257;DHT22;25977;45.462;9.210;2022-08-01T07:44:09;35.00;42.10
40257;DHT22;25977;45.462;9.210;2022-08-01T07:46:35;34.60;42.30
40257;DHT22;25977;45.462;9.210;2022-08-01T07:49:01;34.90;42.30
40257;DHT22;25977;45.462;9.210;2022-08-01T07:51:26;35.00;42.10
40257;DHT22;25977;45.462;9.210;2022-08-01T07:53:52;35.10;42.30
40257;DHT22;25977;45.462;9.210;2022-08-01T07:56:18;35.00;42.20
40257;DHT22;25977;45.462;9.210;2022-08-01T07:58:44;35.00;42.40
40257;DHT22;25977;45.462;9.210;2022-08-01T08:01:12;34.90;42.30
40257;DHT22;25977;45.462;9.210;2022-08-01T08:03:37;34.80;42.50
40257;DHT22;25977;45.462;9.210;2022-08-01T08:06:03;34.80;42.80
40257;DHT22;25977;45.462;9.210;2022-08-01T08:08:29;34.80;43.00
40257;DHT22;25977;45.462;9.210;2022-08-01T08:10:55;34.90;43.00
40257;DHT22;25977;45.462;9.210;2022-08-01T08:13:21;35.00;42.90
40257;DHT22;25977;45.462;9.210;2022-08-01T08:15:47;35.20;42.70
40257;DHT22;25977;45.462;9.210;2022-08-01T08:18:13;35.30;42.50
40257;DHT22;25977;45.462;9.210;2022-08-01T08:20:38;35.30;42.60
40257;DHT22;25977;45.462;9.210;2022-08-01T08:23:04;35.20;42.50
40257;DHT22;25977;45.462;9.210;2022-08-01T08:25:49;35.30;42.50
40257;DHT22;25977;45.462;9.210;2022-08-01T08:28:15;35.30;42.70
40257;DHT22;25977;45.462;9.210;2022-08-01T08:30:41;35.30;42.80
40257;DHT22;25977;45.462;9.210;2022-08-01T08:33:06;35.40;42.70
40257;DHT22;25977;45.462;9.210;2022-08-01T08:35:32;35.40;42.50
40257;DHT22;25977;45.462;9.210;2022-08-01T08:37:58;35.50;42.40
40257;DHT22;25977;45.462;9.210;2022-08-01T08:40:29;35.40;42.20
40257;DHT22;25977;45.462;9.210;2022-08-01T08:42:56;35.40;42.00
40257;DHT22;25977;45.462;9.210;2022-08-01T08:45:22;35.50;42.00
40257;DHT22;25977;45.462;9.210;2022-08-01T08:47:49;35.50;41.90
40257;DHT22;25977;45.462;9.210;2022-08-01T08:50:15;35.50;42.30
40257;DHT22;25977;45.462;9.210;2022-08-01T08:52:43;35.60;42.30
40257;DHT22;25977;45.462;9.210;2022-08-01T08:55:11;35.60;42.30
40257;DHT22;25977;45.462;9.210;2022-08-01T08:57:40;35.60;42.20
40257;DHT22;25977;45.462;9.210;2022-08-01T09:00:08;35.60;42.10
40257;DHT22;25977;45.462;9.210;2022-08-01T09:02:35;35.60;42.30
40257;DHT22;25977;45.462;9.210;2022-08-01T09:05:02;35.70;42.50
40257;DHT22;25977;45.462;9.210;2022-08-01T09:07:27;35.70;42.60
40257;DHT22;25977;45.462;9.210;2022-08-01T09:09:53;35.80;43.20
40257;DHT22;25977;45.462;9.210;2022-08-01T09:12:19;35.80;42.50
40257;DHT22;25977;45.462;9.210;2022-08-01T09:14:46;35.70;42.10
40257;DHT22;25977;45.462;9.210;2022-08-01T09:17:13;35.70;42.30
40257;DHT22;25977;45.462;9.210;2022-08-01T09:19:41;35.70;42.30
40257;DHT22;25977;45.462;9.210;2022-08-01T09:22:11;35.70;42.10
40257;DHT22;25977;45.462;9.210;2022-08-01T09:24:38;35.80;42.20
40257;DHT22;25977;45.462;9.210;2022-08-01T09:27:21;35.80;41.90
40257;DHT22;25977;45.462;9.210;2022-08-01T09:29:51;35.80;42.10
40257;DHT22;25977;45.462;9.210;2022-08-01T09:32:17;35.60;42.50
40257;DHT22;25977;45.462;9.210;2022-08-01T09:34:43;35.40;42.70
40257;DHT22;25977;45.462;9.210;2022-08-01T09:37:12;35.40;43.20
40257;DHT22;25977;45.462;9.210;2022-08-01T09:39:42;35.40;43.30
40257;DHT22;25977;45.462;9.210;2022-08-01T09:42:24;35.50;43.50
40257;DHT22;25977;45.462;9.210;2022-08-01T09:44:51;35.60;43.40
40257;DHT22;25977;45.462;9.210;2022-08-01T09:47:18;35.60;43.00
40257;DHT22;25977;45.462;9.210;2022-08-01T09:49:54;35.60;42.00
40257;DHT22;25977;45.462;9.210;2022-08-01T09:52:21;35.50;41.90
40257;DHT22;25977;45.462;9.210;2022-08-01T09:55:04;35.40;41.90
40257;DHT22;25977;45.462;9.210;2022-08-01T09:57:31;35.30;41.10
40257;DHT22;25977;45.462;9.210;2022-08-01T09:59:58;35.30;41.80
40257;DHT22;25977;45.462;9.210;2022-08-01T10:02:30;35.20;42.50
40257;DHT22;25977;45.462;9.210;2022-08-01T10:04:57;35.00;42.70
40257;DHT22;25977;45.462;9.210;2022-08-01T10:07:23;34.90;42.90
40257;DHT22;25977;45.462;9.210;2022-08-01T10:09:49;34.90;42.60
40257;DHT22;25977;45.462;9.210;2022-08-01T10:12:17;34.90;42.80
40257;DHT22;25977;45.462;9.210;2022-08-01T10:14:45;35.00;42.80
40257;DHT22;25977;45.462;9.210;2022-08-01T10:17:13;35.10;42.60
40257;DHT22;25977;45.462;9.210;2022-08-01T10:19:41;35.20;42.50
40257;DHT22;25977;45.462;9.210;2022-08-01T10:22:09;35.30;42.30
40257;DHT22;25977;45.462;9.210;2022-08-01T10:24:37;35.20;42.00
40257;DHT22;25977;45.462;9.210;2022-08-01T10:27:09;35.10;42.10
40257;DHT22;25977;45.462;9.210;2022-08-01T10:30:09;35.10;41.80
40257;DHT22;25977;45.462;9.210;2022-08-01T10:32:34;35.20;41.30
40257;DHT22;25977;45.462;9.210;2022-08-01T10:35:06;35.10;39.80
40257;DHT22;25977;45.462;9.210;2022-08-01T10:37:35;35.10;40.10
40257;DHT22;25977;45.462;9.210;2022-08-01T10:40:02;35.20;40.30
40257;DHT22;25977;45.462;9.210;2022-08-01T10:42:28;35.20;38.30
40257;DHT22;25977;45.462;9.210;2022-08-01T10:44:55;35.30;38.30
40257;DHT22;25977;45.462;9.210;2022-08-01T10:47:25;35.40;39.30
40257;DHT22;25977;45.462;9.210;2022-08-01T10:50:03;35.40;39.30
40257;DHT22;25977;45.462;9.210;2022-08-01T10:52:30;35.30;38.90
40257;DHT22;25977;45.462;9.210;2022-08-01T10:55:03;35.10;39.40
40257;DHT22;25977;45.462;9.210;2022-08-01T11:00:10;34.90;39.80
40257;DHT22;25977;45.462;9.210;2022-08-01T11:02:40;34.80;39.70
40257;DHT22;25977;45.462;9.210;2022-08-01T11:05:19;34.70;39.90
40257;DHT22;25977;45.462;9.210;2022-08-01T11:07:51;34.80;40.30
40257;DHT22;25977;45.462;9.210;2022-08-01T11:12:55;34.80;39.30
40257;DHT22;25977;45.462;9.210;2022-08-01T11:15:22;35.00;39.00
40257;DHT22;25977;45.462;9.210;2022-08-01T11:17:52;35.00;38.80
40257;DHT22;25977;45.462;9.210;2022-08-01T11:20:20;35.10;38.20
40257;DHT22;25977;45.462;9.210;2022-08-01T11:33:19;35.10;38.20
40257;DHT22;25977;45.462;9.210;2022-08-01T11:38:37;34.90;38.10
40257;DHT22;25977;45.462;9.210;2022-08-01T11:54:41;35.00;39.90
40257;DHT22;25977;45.462;9.210;2022-08-01T11:57:09;35.00;40.00
40257;DHT22;25977;45.462;9.210;2022-08-01T12:05:00;35.10;40.30
40257;DHT22;25977;45.462;9.210;2022-08-01T12:07:27;35.10;40.40
40257;DHT22;25977;45.462;9.210;2022-08-01T12:12:31;34.70;41.30
40257;DHT22;25977;45.462;9.210;2022-08-01T12:14:59;34.80;41.30
40257;DHT22;25977;45.462;9.210;2022-08-01T12:17:46;34.90;41.30
40257;DHT22;25977;45.462;9.210;2022-08-01T12:20:16;35.00;41.00
40257;DHT22;25977;45.462;9.210;2022-08-01T12:22:42;35.00;41.20
40257;DHT22;25977;45.462;9.210;2022-08-01T12:27:36;35.00;40.40
40257;DHT22;25977;45.462;9.210;2022-08-01T12:30:09;34.50;40.60
40257;DHT22;25977;45.462;9.210;2022-08-01T12:32:36;34.80;40.50
40257;DHT22;25977;45.462;9.210;2022-08-01T12:37:38;34.90;40.10
40257;DHT22;25977;45.462;9.210;2022-08-01T12:40:21;35.10;40.00
40257;DHT22;25977;45.462;9.210;2022-08-01T12:42:49;35.20;40.10
40257;DHT22;25977;45.462;9.210;2022-08-01T12:45:20;35.20;39.90
40257;DHT22;25977;45.462;9.210;2022-08-01T12:47:46;35.30;39.70
40257;DHT22;25977;45.462;9.210;2022-08-01T12:50:15;35.20;39.30
40257;DHT22;25977;45.462;9.210;2022-08-01T12:52:41;35.10;39.50
40257;DHT22;25977;45.462;9.210;2022-08-01T12:57:35;35.30;39.30
40257;DHT22;25977;45.462;9.210;2022-08-01T13:00:13;35.40;39.00
40257;DHT22;25977;45.462;9.210;2022-08-01T13:02:39;35.50;39.30
40257;DHT22;25977;45.462;9.210;2022-08-01T13:05:06;35.30;39.60
40257;DHT22;25977;45.462;9.210;2022-08-01T13:07:45;35.10;39.80
40257;DHT22;25977;45.462;9.210;2022-08-01T13:10:13;35.20;40.10
40257;DHT22;25977;45.462;9.210;2022-08-01T13:12:40;35.30;39.50
40257;DHT22;25977;45.462;9.210;2022-08-01T13:15:28;35.40;39.70
40257;DHT22;25977;45.462;9.210;2022-08-01T13:17:56;35.60;39.40
40257;DHT22;25977;45.462;9.210;2022-08-01T13:20:33;35.60;39.30
40257;DHT22;25977;45.462;9.210;2022-08-01T13:23:13;35.60;39.20
40257;DHT22;25977;45.462;9.210;2022-08-01T13:25:55;35.70;38.90
40257;DHT22;25977;45.462;9.210;2022-08-01T13:28:24;35.80;38.70
40257;DHT22;25977;45.462;9.210;2022-08-01T13:33:26;35.70;38.40
40257;DHT22;25977;45.462;9.210;2022-08-01T13:35:53;35.80;38.40
40257;DHT22;25977;45.462;9.210;2022-08-01T13:38:19;35.80;38.50
40257;DHT22;25977;45.462;9.210;2022-08-01T13:40:45;35.90;38.60
40257;DHT22;25977;45.462;9.210;2022-08-01T13:43:11;36.00;37.20
40257;DHT22;25977;45.462;9.210;2022-08-01T13:45:37;36.00;36.40
40257;DHT22;25977;45.462;9.210;2022-08-01T13:48:04;36.10;36.60
40257;DHT22;25977;45.462;9.210;2022-08-01T13:50:30;36.10;35.90
40257;DHT22;25977;45.462;9.210;2022-08-01T13:52:56;36.10;35.90
40257;DHT22;25977;45.462;9.210;2022-08-01T13:55:21;36.20;36.00
40257;DHT22;25977;45.462;9.210;2022-08-01T13:57:47;36.10;35.90
40257;DHT22;25977;45.462;9.210;2022-08-01T14:00:13;35.90;35.80
40257;DHT22;25977;45.462;9.210;2022-08-01T14:02:39;36.00;36.30
40257;DHT22;25977;45.462;9.210;2022-08-01T14:05:06;36.00;36.60
40257;DHT22;25977;45.462;9.210;2022-08-01T14:07:31;36.00;35.70
40257;DHT22;25977;45.462;9.210;2022-08-01T14:09:57;36.10;35.80
40257;DHT22;25977;45.462;9.210;2022-08-01T14:12:23;36.20;36.40
40257;DHT22;25977;45.462;9.210;2022-08-01T14:14:49;36.10;36.40
40257;DHT22;25977;45.462;9.210;2022-08-01T14:17:14;36.10;36.60
40257;DHT22;25977;45.462;9.210;2022-08-01T14:19:40;36.10;36.20
40257;DHT22;25977;45.462;9.210;2022-08-01T14:22:06;36.00;36.10
40257;DHT22;25977;45.462;9.210;2022-08-01T14:24:32;36.00;36.50
40257;DHT22;25977;45.462;9.210;2022-08-01T14:26:57;35.90;36.80
40257;DHT22;25977;45.462;9.210;2022-08-01T14:29:23;35.90;37.10
40257;DHT22;25977;45.462;9.210;2022-08-01T14:31:49;35.70;35.60
40257;DHT22;25977;45.462;9.210;2022-08-01T14:34:16;35.80;36.10
40257;DHT22;25977;45.462;9.210;2022-08-01T14:36:42;35.80;36.20
40257;DHT22;25977;45.462;9.210;2022-08-01T14:39:08;35.70;36.30
40257;DHT22;25977;45.462;9.210;2022-08-01T14:41:33;35.70;36.30
40257;DHT22;25977;45.462;9.210;2022-08-01T14:43:59;35.70;36.30
40257;DHT22;25977;45.462;9.210;2022-08-01T14:46:25;35.60;36.50
40257;DHT22;25977;45.462;9.210;2022-08-01T14:48:51;35.60;36.70
40257;DHT22;25977;45.462;9.210;2022-08-01T14:51:16;35.60;36.80
40257;DHT22;25977;45.462;9.210;2022-08-01T14:53:42;35.70;37.50
40257;DHT22;25977;45.462;9.210;2022-08-01T14:56:08;35.60;37.10
40257;DHT22;25977;45.462;9.210;2022-08-01T14:58:34;35.30;37.40
40257;DHT22;25977;45.462;9.210;2022-08-01T15:01:00;35.30;37.80
40257;DHT22;25977;45.462;9.210;2022-08-01T15:03:26;35.30;37.50
40257;DHT22;25977;45.462;9.210;2022-08-01T15:05:51;35.30;37.10
40257;DHT22;25977;45.462;9.210;2022-08-01T15:08:17;35.30;37.00
40257;DHT22;25977;45.462;9.210;2022-08-01T15:10:43;35.30;37.50
40257;DHT22;25977;45.462;9.210;2022-08-01T15:13:08;35.40;37.60
40257;DHT22;25977;45.462;9.210;2022-08-01T15:15:34;35.30;37.70
40257;DHT22;25977;45.462;9.210;2022-08-01T15:18:00;35.40;37.60
40257;DHT22;25977;45.462;9.210;2022-08-01T15:20:26;35.40;37.50
40257;DHT22;25977;45.462;9.210;2022-08-01T15:22:53;35.20;36.80
40257;DHT22;25977;45.462;9.210;2022-08-01T15:25:19;35.30;36.70
40257;DHT22;25977;45.462;9.210;2022-08-01T15:27:45;35.20;36.60
40257;DHT22;25977;45.462;9.210;2022-08-01T15:30:11;35.30;36.30
40257;DHT22;25977;45.462;9.210;2022-08-01T15:32:37;35.10;36.10
40257;DHT22;25977;45.462;9.210;2022-08-01T15:35:04;35.10;36.00
40257;DHT22;25977;45.462;9.210;2022-08-01T15:37:31;35.00;35.50
40257;DHT22;25977;45.462;9.210;2022-08-01T15:39:57;34.90;35.90
40257;DHT22;25977;45.462;9.210;2022-08-01T15:42:23;35.00;35.80
40257;DHT22;25977;45.462;9.210;2022-08-01T15:44:49;35.00;35.40
40257;DHT22;25977;45.462;9.210;2022-08-01T15:47:15;35.10;35.20
40257;DHT22;25977;45.462;9.210;2022-08-01T15:49:41;35.10;35.00
40257;DHT22;25977;45.462;9.210;2022-08-01T15:52:08;35.10;35.00
40257;DHT22;25977;45.462;9.210;2022-08-01T15:54:34;35.10;35.20
40257;DHT22;25977;45.462;9.210;2022-08-01T15:57:00;35.10;35.20
40257;DHT22;25977;45.462;9.210;2022-08-01T15:59:26;35.10;35.10
40257;DHT22;25977;45.462;9.210;2022-08-01T16:01:52;35.10;34.80
40257;DHT22;25977;45.462;9.210;2022-08-01T16:04:18;35.10;34.80
40257;DHT22;25977;45.462;9.210;2022-08-01T16:06:45;35.10;35.20
40257;DHT22;25977;45.462;9.210;2022-08-01T16:09:11;35.10;35.50
40257;DHT22;25977;45.462;9.210;2022-08-01T16:11:37;35.20;35.80
40257;DHT22;25977;45.462;9.210;2022-08-01T16:14:03;35.10;36.00
40257;DHT22;25977;45.462;9.210;2022-08-01T16:16:29;35.10;35.90
40257;DHT22;25977;45.462;9.210;2022-08-01T16:18:55;35.00;34.40
40257;DHT22;25977;45.462;9.210;2022-08-01T16:21:21;35.00;35.10
40257;DHT22;25977;45.462;9.210;2022-08-01T16:23:48;34.90;33.70
40257;DHT22;25977;45.462;9.210;2022-08-01T16:26:14;35.00;33.70
40257;DHT22;25977;45.462;9.210;2022-08-01T16:28:40;35.00;33.80
40257;DHT22;25977;45.462;9.210;2022-08-01T16:31:06;35.00;33.90
40257;DHT22;25977;45.462;9.210;2022-08-01T16:33:32;35.10;33.50
40257;DHT22;25977;45.462;9.210;2022-08-01T16:35:59;35.00;33.30
40257;DHT22;25977;45.462;9.210;2022-08-01T16:38:25;35.00;33.60